Time;durP1;ratioP1;P1;durP2;ratioP2;P2;SDS_P1;SDS_P2;PMS_P1;PMS_P2;Temp;Humidity;BMP_temperature;BMP_pressure;BME280_temperature;BME280_humidity;BME280_pressure;Samples;Min_cycle;Max_cycle;Signal;HPM_P1;HPM_P2
2022/04/07 00:22:34;;;;;;;6.15;4.90;;;;;;;;;;4641870;28;20187;-65
2022/04/07 00:25:00;;;;;;;4.93;4.43;;;;;;;;;;4240139;33;20464;-66
2022/04/07 00:27:26;;;;;;;7.18;4.55;;;;;;;;;;4231567;33;20131;-65
2022/04/07 00:29:52;;;;;;;5.35;4.85;;;;;;;;;;4233132;33;20117;-63
2022/04/07 00:32:18;;;;;;;6.60;5.47;;;;;;;;;;4220288;33;20136;-63
2022/04/07 00:34:46;;;;;;;6.47;5.10;;;;;;;;;;4220671;33;20465;-63
2022/04/07 00:37:13;;;;;;;6.18;5.53;;;;;;;;;;4233573;33;20430;-63
2022/04/07 00:39:39;;;;;;;7.22;5.55;;;;;;;;;;4233419;33;20109;-64
2022/04/07 00:42:05;;;;;;;5.78;5.18;;;;;;;;;;4233486;33;20159;-63
2022/04/07 00:44:31;;;;;;;7.03;5.68;;;;;;;;;;4233675;33;20120;-63
2022/04/07 00:46:57;;;;;;;6.87;5.30;;;;;;;;;;4220512;33;20104;-63
2022/04/07 00:49:23;;;;;;;6.05;5.37;;;;;;;;;;4233561;33;20173;-61
2022/04/07 00:51:49;;;;;;;7.47;5.70;;;;;;;;;;4233835;33;20116;-63
2022/04/07 00:54:16;;;;;;;9.55;6.43;;;;;;;;;;4220586;33;20085;-64
2022/04/07 00:56:42;;;;;;;6.32;5.30;;;;;;;;;;4220203;33;20204;-63
2022/04/07 00:59:10;;;;;;;6.97;6.03;;;;;;;;;;4220513;33;20450;-63
2022/04/07 01:01:36;;;;;;;7.07;4.97;;;;;;;;;;4220397;33;20112;-63
2022/04/07 01:04:02;;;;;;;7.50;4.97;;;;;;;;;;4232449;33;20128;-63
2022/04/07 01:06:29;;;;;;;6.80;4.95;;;;;;;;;;4233187;33;20537;-63
2022/04/07 01:08:55;;;;;;;6.47;4.65;;;;;;;;;;4233116;33;20128;-61
2022/04/07 01:11:22;;;;;;;6.57;5.93;;;;;;;;;;4233276;33;20124;-62
2022/04/07 01:13:50;;;;;;;7.20;5.55;;;;;;;;;;4233321;33;20108;-61
2022/04/07 01:16:26;;;;;;;6.20;5.60;;;;;;;;;;4233290;33;20122;-62
2022/04/07 01:18:52;;;;;;;;;;;;;;;;;;4233725;33;20109;-62
2022/04/07 01:21:18;;;;;;;7.85;5.95;;;;;;;;;;4233357;33;20007;-63
2022/04/07 01:24:03;;;;;;;6.87;5.90;;;;;;;;;;4232790;33;20210;-62
2022/04/07 01:26:38;;;;;;;6.50;5.80;;;;;;;;;;4233099;33;20140;-63
2022/04/07 01:29:05;;;;;;;;;;;;;;;;;;4220588;33;20430;-63
2022/04/07 01:31:32;;;;;;;7.90;5.32;;;;;;;;;;4208562;33;20147;-62
2022/04/07 01:33:59;;;;;;;6.90;5.28;;;;;;;;;;4232985;33;20113;-62
2022/04/07 01:36:26;;;;;;;6.75;6.03;;;;;;;;;;4233251;33;20125;-62
2022/04/07 01:38:52;;;;;;;6.10;5.50;;;;;;;;;;4232984;33;20128;-62
2022/04/07 01:41:19;;;;;;;7.78;6.22;;;;;;;;;;4233066;33;20096;-62
2022/04/07 01:43:45;;;;;;;7.05;6.30;;;;;;;;;;4219830;33;20132;-61
2022/04/07 01:46:14;;;;;;;6.97;5.87;;;;;;;;;;4219995;33;20123;-63
2022/04/07 01:48:41;;;;;;;7.00;6.07;;;;;;;;;;4233041;33;20216;-62
2022/04/07 01:51:09;;;;;;;7.12;6.18;;;;;;;;;;4219957;33;20809;-63
2022/04/07 01:53:35;;;;;;;6.65;5.95;;;;;;;;;;4219886;33;20109;-62
2022/04/07 01:56:01;;;;;;;6.90;6.15;;;;;;;;;;4232823;33;20127;-62
2022/04/07 01:58:27;;;;;;;7.25;6.32;;;;;;;;;;4219537;33;20180;-62
2022/04/07 02:00:54;;;;;;;6.82;6.07;;;;;;;;;;4232886;33;20184;-63
2022/04/07 02:03:21;;;;;;;7.75;6.85;;;;;;;;;;4219693;33;20121;-62
2022/04/07 02:05:47;;;;;;;7.55;6.65;;;;;;;;;;4232780;33;20533;-63
2022/04/07 02:08:13;;;;;;;9.88;6.90;;;;;;;;;;4219836;33;20212;-63
2022/04/07 02:10:39;;;;;;;7.57;6.87;;;;;;;;;;4232716;33;20192;-63
2022/04/07 02:13:05;;;;;;;9.23;7.57;;;;;;;;;;4232729;33;20114;-63
2022/04/07 02:15:31;;;;;;;8.48;7.32;;;;;;;;;;4219159;33;20520;-63
2022/04/07 02:17:57;;;;;;;8.43;7.62;;;;;;;;;;4232564;33;20105;-63
2022/04/07 02:20:23;;;;;;;8.15;7.32;;;;;;;;;;4232686;33;20108;-63
2022/04/07 02:22:49;;;;;;;9.50;7.62;;;;;;;;;;4219608;33;20562;-63
2022/04/07 02:25:15;;;;;;;10.95;7.47;;;;;;;;;;4232703;33;20105;-62
2022/04/07 02:27:42;;;;;;;9.80;7.00;;;;;;;;;;4232204;33;20505;-63
2022/04/07 02:30:13;;;;;;;9.02;7.62;;;;;;;;;;4232708;33;20119;-63
2022/04/07 02:32:40;;;;;;;8.98;8.07;;;;;;;;;;4232525;33;20453;-63
2022/04/07 02:35:07;;;;;;;8.90;8.00;;;;;;;;;;4219533;33;20101;-62
2022/04/07 02:37:33;;;;;;;9.38;8.02;;;;;;;;;;4232900;33;20121;-63
2022/04/07 02:39:59;;;;;;;8.82;7.93;;;;;;;;;;4219378;33;20120;-63
2022/04/07 02:42:25;;;;;;;9.07;8.15;;;;;;;;;;4232552;33;20123;-63
2022/04/07 02:44:51;;;;;;;11.23;8.43;;;;;;;;;;4232589;33;20128;-63
2022/04/07 02:47:17;;;;;;;10.55;8.90;;;;;;;;;;4232558;33;20128;-63
2022/04/07 02:49:43;;;;;;;11.07;8.30;;;;;;;;;;4232506;33;20177;-63
2022/04/07 02:52:10;;;;;;;9.30;7.90;;;;;;;;;;4231293;33;20128;-63
2022/04/07 02:54:37;;;;;;;9.63;8.05;;;;;;;;;;4232498;33;20093;-63
2022/04/07 02:57:03;;;;;;;9.10;8.20;;;;;;;;;;4219215;33;20181;-63
2022/04/07 02:59:30;;;;;;;9.55;8.40;;;;;;;;;;4219040;33;20513;-62
2022/04/07 03:01:56;;;;;;;10.55;8.95;;;;;;;;;;4219357;33;20143;-63
2022/04/07 03:04:24;;;;;;;8.98;8.07;;;;;;;;;;4232168;33;20108;-62
2022/04/07 03:06:53;;;;;;;8.73;7.93;;;;;;;;;;4232576;33;20112;-63
2022/04/07 03:09:20;;;;;;;8.73;7.87;;;;;;;;;;4232104;33;20600;-63
2022/04/07 03:11:46;;;;;;;12.23;8.15;;;;;;;;;;4219165;33;20284;-63
2022/04/07 03:14:13;;;;;;;8.93;7.00;;;;;;;;;;4232100;33;20123;-63
2022/04/07 03:16:40;;;;;;;7.18;6.47;;;;;;;;;;4232188;33;20127;-62
2022/04/07 03:19:06;;;;;;;9.88;7.68;;;;;;;;;;4219051;33;20105;-62
2022/04/07 03:21:32;;;;;;;7.10;6.32;;;;;;;;;;4232037;33;20117;-62
2022/04/07 03:23:58;;;;;;;8.20;7.40;;;;;;;;;;4232013;33;20117;-62
2022/04/07 03:26:24;;;;;;;7.78;7.05;;;;;;;;;;4231869;33;20200;-62
2022/04/07 03:28:50;;;;;;;7.20;6.45;;;;;;;;;;4234054;33;20134;-63
2022/04/07 03:31:16;;;;;;;8.35;6.57;;;;;;;;;;4233618;33;20132;-62
2022/04/07 03:33:42;;;;;;;8.05;6.10;;;;;;;;;;4220880;33;20093;-64
2022/04/07 03:36:08;;;;;;;7.03;6.20;;;;;;;;;;4233634;33;20113;-63
2022/04/07 03:38:35;;;;;;;7.87;6.55;;;;;;;;;;4233908;33;20212;-62
2022/04/07 03:41:01;;;;;;;7.05;6.32;;;;;;;;;;4234142;33;20113;-64
2022/04/07 03:43:27;;;;;;;6.47;5.87;;;;;;;;;;4234098;33;20188;-61
2022/04/07 03:45:53;;;;;;;6.82;6.22;;;;;;;;;;4234003;33;20136;-61
2022/04/07 03:48:20;;;;;;;7.72;6.03;;;;;;;;;;4233863;33;20148;-62
2022/04/07 03:50:46;;;;;;;7.10;6.40;;;;;;;;;;4233869;33;20555;-62
2022/04/07 03:53:11;;;;;;;7.93;6.25;;;;;;;;;;4233851;33;20205;-63
2022/04/07 03:55:37;;;;;;;6.82;6.07;;;;;;;;;;4220918;33;20200;-63
2022/04/07 03:58:03;;;;;;;6.43;5.60;;;;;;;;;;4233861;33;20195;-63
2022/04/07 04:00:30;;;;;;;6.60;6.00;;;;;;;;;;4234193;33;20205;-64
2022/04/07 04:02:56;;;;;;;6.65;5.85;;;;;;;;;;4233452;33;20216;-64
2022/04/07 04:05:22;;;;;;;5.87;5.37;;;;;;;;;;4233197;33;20113;-63
2022/04/07 04:07:48;;;;;;;6.18;5.57;;;;;;;;;;4232807;33;20124;-63
2022/04/07 04:10:15;;;;;;;8.60;5.87;;;;;;;;;;4220199;33;20193;-65
2022/04/07 04:12:41;;;;;;;6.78;5.68;;;;;;;;;;4220010;33;20124;-64
2022/04/07 04:15:08;;;;;;;6.15;5.50;;;;;;;;;;4233600;33;20548;-62
2022/04/07 04:17:34;;;;;;;6.00;5.28;;;;;;;;;;4232200;33;20120;-62
2022/04/07 04:20:01;;;;;;;6.97;6.28;;;;;;;;;;4233756;33;20581;-64
2022/04/07 04:22:27;;;;;;;5.85;5.32;;;;;;;;;;4233666;33;20129;-64
2022/04/07 04:24:53;;;;;;;6.70;5.62;;;;;;;;;;4233526;33;20089;-63
2022/04/07 04:27:19;;;;;;;6.43;5.75;;;;;;;;;;4233485;33;20111;-61
2022/04/07 04:29:45;;;;;;;6.93;5.80;;;;;;;;;;4220407;33;20124;-65
2022/04/07 04:32:11;;;;;;;6.65;5.20;;;;;;;;;;4233349;33;20557;-64
2022/04/07 04:34:37;;;;;;;5.80;5.30;;;;;;;;;;4232928;33;20093;-61
2022/04/07 04:37:04;;;;;;;5.57;4.78;;;;;;;;;;4207913;33;20134;-63
2022/04/07 04:39:30;;;;;;;6.12;5.53;;;;;;;;;;4232353;33;20586;-62
2022/04/07 04:41:56;;;;;;;5.55;5.05;;;;;;;;;;4232488;33;20717;-63
2022/04/07 04:44:22;;;;;;;7.50;5.43;;;;;;;;;;4232231;33;20612;-63
2022/04/07 04:46:48;;;;;;;6.85;6.15;;;;;;;;;;4233458;33;20113;-64
2022/04/07 04:49:14;;;;;;;5.37;4.70;;;;;;;;;;4233592;33;20117;-63
2022/04/07 04:51:40;;;;;;;6.75;4.45;;;;;;;;;;4232301;33;20156;-64
2022/04/07 04:54:06;;;;;;;7.72;5.55;;;;;;;;;;4233612;33;20584;-64
2022/04/07 04:56:32;;;;;;;7.87;5.87;;;;;;;;;;4220602;33;20141;-63
2022/04/07 04:58:58;;;;;;;7.45;5.50;;;;;;;;;;4233371;33;20216;-64
2022/04/07 05:01:24;;;;;;;6.12;5.45;;;;;;;;;;4233496;33;20105;-64
2022/04/07 05:03:50;;;;;;;6.05;5.45;;;;;;;;;;4233246;33;20124;-62
2022/04/07 05:06:16;;;;;;;5.82;4.72;;;;;;;;;;4232178;33;20118;-63
2022/04/07 05:08:42;;;;;;;5.72;5.12;;;;;;;;;;4233082;33;20505;-63
2022/04/07 05:11:08;;;;;;;6.22;5.62;;;;;;;;;;4220103;33;20114;-62
2022/04/07 05:13:34;;;;;;;5.30;4.78;;;;;;;;;;4233075;33;20187;-62
2022/04/07 05:16:00;;;;;;;7.65;5.65;;;;;;;;;;4233214;33;20585;-61
2022/04/07 05:18:26;;;;;;;6.53;5.20;;;;;;;;;;4219872;33;20213;-62
2022/04/07 05:20:52;;;;;;;6.93;5.15;;;;;;;;;;4233320;33;20202;-63
2022/04/07 05:23:18;;;;;;;6.55;4.93;;;;;;;;;;4232900;33;20516;-62
2022/04/07 05:25:45;;;;;;;5.53;4.97;;;;;;;;;;4233012;33;20104;-64
2022/04/07 05:28:11;;;;;;;4.57;4.10;;;;;;;;;;4233003;33;20120;-63
2022/04/07 05:30:37;;;;;;;4.50;4.03;;;;;;;;;;4233034;33;20204;-63
2022/04/07 05:33:03;;;;;;;5.40;4.10;;;;;;;;;;4233118;33;20196;-63
2022/04/07 05:35:30;;;;;;;4.78;3.85;;;;;;;;;;4233126;33;20203;-64
2022/04/07 05:38:02;;;;;;;4.30;3.90;;;;;;;;;;4232983;33;20465;-63
2022/04/07 05:40:29;;;;;;;4.75;4.25;;;;;;;;;;4220281;33;20088;-63
2022/04/07 05:42:55;;;;;;;5.03;3.75;;;;;;;;;;4231742;33;20105;-63
2022/04/07 05:45:22;;;;;;;3.75;3.33;;;;;;;;;;4220127;33;20104;-64
2022/04/07 05:47:48;;;;;;;3.83;3.42;;;;;;;;;;4220069;33;20530;-63
2022/04/07 05:50:14;;;;;;;7.37;3.70;;;;;;;;;;4232554;33;20097;-61
2022/04/07 05:52:40;;;;;;;4.18;3.05;;;;;;;;;;4219993;33;20160;-60
2022/04/07 05:55:07;;;;;;;3.42;2.90;;;;;;;;;;4232790;33;20180;-63
2022/04/07 05:57:33;;;;;;;4.00;2.58;;;;;;;;;;4232991;33;20129;-64
2022/04/07 06:00:12;;;;;;;3.25;2.90;;;;;;;;;;4220143;33;20112;-63
2022/04/07 06:02:39;;;;;;;5.22;2.90;;;;;;;;;;4232850;33;20127;-63
2022/04/07 06:05:06;;;;;;;3.47;3.17;;;;;;;;;;4232796;33;20180;-63
2022/04/07 06:07:33;;;;;;;5.75;3.30;;;;;;;;;;4232923;33;20534;-61
2022/04/07 06:09:59;;;;;;;4.12;3.42;;;;;;;;;;4232620;33;20095;-62
2022/04/07 06:12:25;;;;;;;5.18;2.97;;;;;;;;;;4219819;33;20187;-64
2022/04/07 06:14:51;;;;;;;4.10;3.10;;;;;;;;;;4232647;33;20551;-64
2022/04/07 06:17:17;;;;;;;5.05;3.80;;;;;;;;;;4233027;33;20105;-62
2022/04/07 06:19:43;;;;;;;5.32;3.72;;;;;;;;;;4232585;33;20603;-63
2022/04/07 06:22:11;;;;;;;8.95;3.83;;;;;;;;;;4232612;33;20122;-63
2022/04/07 06:24:37;;;;;;;4.15;3.58;;;;;;;;;;4232619;33;20096;-61
2022/04/07 06:27:03;;;;;;;7.05;3.45;;;;;;;;;;4232524;33;20481;-64
2022/04/07 06:29:29;;;;;;;4.82;3.28;;;;;;;;;;4231384;33;20102;-63
2022/04/07 06:31:55;;;;;;;4.93;3.85;;;;;;;;;;4232989;33;20430;-63
2022/04/07 06:34:21;;;;;;;3.58;2.92;;;;;;;;;;4232718;33;20201;-63
2022/04/07 06:36:47;;;;;;;6.37;2.87;;;;;;;;;;4232469;33;20132;-62
2022/04/07 06:39:14;;;;;;;3.92;3.00;;;;;;;;;;4232660;33;20104;-62
2022/04/07 06:41:39;;;;;;;3.08;2.42;;;;;;;;;;4232746;33;20120;-62
2022/04/07 06:44:06;;;;;;;4.32;3.15;;;;;;;;;;4232729;33;20116;-63
2022/04/07 06:46:32;;;;;;;4.50;2.50;;;;;;;;;;4232648;33;20125;-62
2022/04/07 06:49:01;;;;;;;6.05;3.12;;;;;;;;;;4232991;33;20109;-63
2022/04/07 06:51:28;;;;;;;2.28;2.00;;;;;;;;;;4233334;33;20203;-63
2022/04/07 06:53:54;;;;;;;2.47;2.28;;;;;;;;;;4232555;33;20105;-62
2022/04/07 06:56:20;;;;;;;6.15;2.30;;;;;;;;;;4232453;33;20124;-61
2022/04/07 06:58:46;;;;;;;5.47;2.20;;;;;;;;;;4232456;33;20204;-61
2022/04/07 07:01:12;;;;;;;3.15;2.20;;;;;;;;;;4231694;33;20215;-63
2022/04/07 07:03:38;;;;;;;5.35;2.30;;;;;;;;;;4231932;33;20170;-63
2022/04/07 07:06:03;;;;;;;9.80;2.30;;;;;;;;;;4232605;33;20235;-63
2022/04/07 07:08:29;;;;;;;2.80;1.85;;;;;;;;;;4232413;33;20094;-63
2022/04/07 07:10:55;;;;;;;5.75;2.40;;;;;;;;;;4232049;33;20545;-63
2022/04/07 07:13:23;;;;;;;3.08;2.17;;;;;;;;;;4232369;33;20108;-63
2022/04/07 07:15:49;;;;;;;3.42;2.20;;;;;;;;;;4232309;33;20112;-63
2022/04/07 07:18:16;;;;;;;2.83;1.90;;;;;;;;;;4230780;33;20109;-62
2022/04/07 07:20:42;;;;;;;5.55;1.95;;;;;;;;;;4219117;33;20117;-62
2022/04/07 07:23:08;;;;;;;4.20;1.80;;;;;;;;;;4219097;33;20133;-61
2022/04/07 07:25:35;;;;;;;5.80;1.80;;;;;;;;;;4218954;33;20516;-63
2022/04/07 07:28:02;;;;;;;2.65;2.15;;;;;;;;;;4231957;33;20196;-62
2022/04/07 07:30:28;;;;;;;7.68;2.15;;;;;;;;;;4231776;33;20592;-62
2022/04/07 07:32:54;;;;;;;3.87;1.98;;;;;;;;;;4231938;33;20220;-63
2022/04/07 07:35:21;;;;;;;1.60;1.50;;;;;;;;;;4231711;33;20457;-63
2022/04/07 07:37:54;;;;;;;4.25;1.92;;;;;;;;;;4207379;33;20109;-63
2022/04/07 07:40:22;;;;;;;4.00;1.58;;;;;;;;;;4231871;33;20120;-61
2022/04/07 07:42:49;;;;;;;1.52;1.42;;;;;;;;;;4231725;33;20114;-63
2022/04/07 07:45:16;;;;;;;2.60;1.67;;;;;;;;;;4218791;33;20128;-62
2022/04/07 07:47:42;;;;;;;1.85;1.50;;;;;;;;;;4219218;33;20098;-63
2022/04/07 07:50:08;;;;;;;4.28;1.70;;;;;;;;;;4231795;33;20195;-63
2022/04/07 07:52:34;;;;;;;4.15;2.08;;;;;;;;;;4219209;33;20088;-62
2022/04/07 07:55:01;;;;;;;5.75;2.00;;;;;;;;;;4231684;33;20150;-62
2022/04/07 07:57:27;;;;;;;2.90;1.92;;;;;;;;;;4231775;33;20101;-62
2022/04/07 07:59:53;;;;;;;1.90;1.62;;;;;;;;;;4231626;33;20103;-61
2022/04/07 08:02:19;;;;;;;2.00;1.60;;;;;;;;;;4231570;33;20096;-61
2022/04/07 08:04:46;;;;;;;2.45;1.50;;;;;;;;;;4218744;33;20174;-60
2022/04/07 08:07:12;;;;;;;5.75;1.80;;;;;;;;;;4230099;33;20220;-60
2022/04/07 08:09:38;;;;;;;4.12;1.50;;;;;;;;;;4231494;33;20148;-63
2022/04/07 08:12:04;;;;;;;3.40;1.58;;;;;;;;;;4231684;33;20607;-60
2022/04/07 08:14:31;;;;;;;1.50;1.40;;;;;;;;;;4233328;33;20202;-61
2022/04/07 08:16:57;;;;;;;1.73;1.62;;;;;;;;;;4233805;33;20117;-61
2022/04/07 08:19:23;;;;;;;1.58;1.48;;;;;;;;;;4232423;33;20151;-62
2022/04/07 08:21:50;;;;;;;2.22;1.50;;;;;;;;;;4233595;33;20460;-59
2022/04/07 08:24:18;;;;;;;2.92;1.60;;;;;;;;;;4233548;33;20108;-60
2022/04/07 08:26:44;;;;;;;2.12;1.60;;;;;;;;;;4233573;33;20180;-62
2022/04/07 08:29:10;;;;;;;2.10;1.52;;;;;;;;;;4220791;33;20549;-59
2022/04/07 08:31:36;;;;;;;5.87;1.90;;;;;;;;;;4233447;33;20125;-59
2022/04/07 08:34:02;;;;;;;2.33;1.95;;;;;;;;;;4233794;33;20112;-60
2022/04/07 08:36:28;;;;;;;3.62;1.62;;;;;;;;;;4233320;33;20116;-63
2022/04/07 08:38:54;;;;;;;2.87;2.05;;;;;;;;;;4233389;33;20203;-62
2022/04/07 08:41:21;;;;;;;2.15;1.80;;;;;;;;;;4233621;33;20137;-60
2022/04/07 08:43:47;;;;;;;2.10;1.90;;;;;;;;;;4220427;33;20298;-62
2022/04/07 08:46:13;;;;;;;3.08;1.80;;;;;;;;;;4233496;33;20565;-62
2022/04/07 08:48:43;;;;;;;1.77;1.58;;;;;;;;;;4233358;33;20481;-64
2022/04/07 08:51:10;;;;;;;1.50;1.40;;;;;;;;;;4233387;33;20148;-59
2022/04/07 08:53:38;;;;;;;3.75;1.75;;;;;;;;;;4233452;33;20105;-62
2022/04/07 08:56:06;;;;;;;2.22;1.90;;;;;;;;;;4220505;33;20097;-59
2022/04/07 08:58:32;;;;;;;1.70;1.60;;;;;;;;;;4233519;33;20121;-61
2022/04/07 09:00:59;;;;;;;5.22;2.00;;;;;;;;;;4233267;33;20108;-60
2022/04/07 09:03:25;;;;;;;3.78;1.90;;;;;;;;;;4233206;33;20590;-62
2022/04/07 09:06:02;;;;;;;1.60;1.50;;;;;;;;;;4233273;33;20113;-60
2022/04/07 09:08:36;;;;;;;6.47;2.45;;;;;;;;;;4220574;33;20679;-61
2022/04/07 09:11:07;;;;;;;3.20;2.15;;;;;;;;;;4233314;33;20109;-58
2022/04/07 09:13:41;;;;;;;3.92;1.75;;;;;;;;;;4208923;33;20105;-58
2022/04/07 09:16:15;;;;;;;1.85;1.60;;;;;;;;;;4220182;33;20108;-58
2022/04/07 09:18:42;;;;;;;2.72;1.70;;;;;;;;;;4232860;33;20132;-60
2022/04/07 09:21:27;;;;;;;2.92;1.65;;;;;;;;;;4220268;33;20195;-58
2022/04/07 09:23:57;;;;;;;2.70;1.70;;;;;;;;;;4232951;33;20105;-59
2022/04/07 09:26:23;;;;;;;1.70;1.60;;;;;;;;;;4219315;33;20123;-58
2022/04/07 09:28:50;;;;;;;3.75;1.65;;;;;;;;;;4233074;33;20105;-58
2022/04/07 09:31:17;;;;;;;3.72;1.55;;;;;;;;;;4220017;33;20208;-57
2022/04/07 09:33:43;;;;;;;2.80;1.65;;;;;;;;;;4232869;33;20219;-58
2022/04/07 09:36:11;;;;;;;2.33;1.70;;;;;;;;;;4220050;33;20543;-58
2022/04/07 09:38:38;;;;;;;1.60;1.50;;;;;;;;;;4232804;33;20182;-59
2022/04/07 09:41:14;;;;;;;4.30;1.67;;;;;;;;;;4233006;33;20105;-59
2022/04/07 09:43:58;;;;;;;2.35;1.70;;;;;;;;;;4232992;33;20105;-59
2022/04/07 09:46:31;;;;;;;2.25;1.90;;;;;;;;;;4232858;33;20108;-59
2022/04/07 09:49:04;;;;;;;3.37;1.77;;;;;;;;;;4232990;33;20120;-59
2022/04/07 09:51:45;;;;;;;3.55;2.05;;;;;;;;;;4232637;33;20469;-59
2022/04/07 09:54:11;;;;;;;7.45;1.80;;;;;;;;;;4232803;33;20525;-59
2022/04/07 09:56:38;;;;;;;4.72;1.67;;;;;;;;;;4232827;33;20228;-59
2022/04/07 09:59:08;;;;;;;4.18;1.70;;;;;;;;;;4232857;33;20119;-59
2022/04/07 10:01:40;;;;;;;4.07;1.50;;;;;;;;;;4232929;33;20113;-59
2022/04/07 10:04:08;;;;;;;1.50;1.40;;;;;;;;;;4232791;33;20509;-60
2022/04/07 10:06:35;;;;;;;2.17;1.70;;;;;;;;;;4219767;33;20473;-62
2022/04/07 10:09:03;;;;;;;2.00;1.42;;;;;;;;;;4232645;33;20131;-59
2022/04/07 10:11:31;;;;;;;1.50;1.40;;;;;;;;;;4232851;33;20105;-62
2022/04/07 10:13:58;;;;;;;3.83;1.52;;;;;;;;;;4232590;33;20124;-60
2022/04/07 10:16:25;;;;;;;4.82;1.60;;;;;;;;;;4232626;33;20437;-60
2022/04/07 10:19:21;;;;;;;4.72;1.87;;;;;;;;;;4232819;33;20125;-60
2022/04/07 10:21:55;;;;;;;6.30;2.10;;;;;;;;;;4208919;33;20105;-60
2022/04/07 10:24:31;;;;;;;3.85;1.77;;;;;;;;;;4232546;33;20109;-59
2022/04/07 10:27:00;;;;;;;6.93;2.20;;;;;;;;;;4219804;33;20548;-60
2022/04/07 10:29:28;;;;;;;2.87;2.22;;;;;;;;;;4232507;33;20097;-60
2022/04/07 10:32:12;;;;;;;1.10;1.10;;;;;;;;;;4232821;33;20131;-61
2022/04/07 10:34:42;;;;;;;5.57;1.90;;;;;;;;;;4232581;33;20124;-59
2022/04/07 10:37:09;;;;;;;7.05;2.12;;;;;;;;;;4232305;33;20289;-60
2022/04/07 10:39:41;;;;;;;4.05;2.25;;;;;;;;;;4232462;33;20123;-60
2022/04/07 10:42:09;;;;;;;5.18;1.83;;;;;;;;;;4232376;33;20532;-60
2022/04/07 10:44:36;;;;;;;3.95;1.95;;;;;;;;;;4232372;33;20201;-61
2022/04/07 10:47:06;;;;;;;3.60;1.70;;;;;;;;;;4232415;33;20109;-61
2022/04/07 10:49:33;;;;;;;2.33;1.52;;;;;;;;;;4232258;33;20508;-62
2022/04/07 10:52:02;;;;;;;1.25;1.20;;;;;;;;;;4232380;33;20132;-61
2022/04/07 10:54:29;;;;;;;7.30;1.80;;;;;;;;;;4232187;33;20124;-61
2022/04/07 10:56:56;;;;;;;2.15;1.30;;;;;;;;;;4232432;33;20112;-61
2022/04/07 10:59:27;;;;;;;5.75;1.70;;;;;;;;;;4232135;33;20113;-61
2022/04/07 11:02:06;;;;;;;4.97;1.30;;;;;;;;;;4232207;33;20127;-60
2022/04/07 11:04:42;;;;;;;1.45;1.35;;;;;;;;;;4232203;33;20463;-60
2022/04/07 11:07:08;;;;;;;2.87;1.75;;;;;;;;;;4232142;33;20117;-60
2022/04/07 11:09:49;;;;;;;4.90;1.67;;;;;;;;;;4232384;33;20129;-60
2022/04/07 11:12:34;;;;;;;0.77;0.77;;;;;;;;;;4230801;33;20121;-61
2022/04/07 11:15:03;;;;;;;4.60;1.83;;;;;;;;;;4232499;33;20209;-61
2022/04/07 11:17:31;;;;;;;2.53;1.73;;;;;;;;;;4232173;33;20190;-60
2022/04/07 11:20:05;;;;;;;4.82;1.55;;;;;;;;;;4232076;33;20617;-59
2022/04/07 11:23:05;;;;;;;2.58;1.30;;;;;;;;;;4231961;33;20205;-60
2022/04/07 11:25:32;;;;;;;1.58;1.48;;;;;;;;;;4200880;33;20216;-59
2022/04/07 11:28:10;;;;;;;3.08;1.48;;;;;;;;;;4218865;33;20096;-61
2022/04/07 11:30:58;;;;;;;11.23;1.90;;;;;;;;;;4232020;33;20104;-60
2022/04/07 11:33:26;;;;;;;3.50;1.58;;;;;;;;;;4231745;33;20101;-60
2022/04/07 11:35:58;;;;;;;5.00;1.65;;;;;;;;;;4231829;33;20182;-59
2022/04/07 11:38:37;;;;;;;1.42;1.30;;;;;;;;;;4228884;33;20196;-59
2022/04/07 11:41:14;;;;;;;2.50;1.17;;;;;;;;;;4228921;33;20117;-59
2022/04/07 11:43:45;;;;;;;3.85;1.58;;;;;;;;;;4228819;33;20109;-60
2022/04/07 11:46:13;;;;;;;5.62;1.58;;;;;;;;;;4214707;33;20469;-61
2022/04/07 11:48:40;;;;;;;1.25;1.17;;;;;;;;;;4228484;33;20128;-60
2022/04/07 11:51:17;;;;;;;1.33;1.20;;;;;;;;;;4229750;33;21153;-61
2022/04/07 11:53:55;;;;;;;1.77;1.33;;;;;;;;;;4229523;33;20141;-61
2022/04/07 11:56:27;;;;;;;2.97;1.35;;;;;;;;;;4229836;33;20128;-61
2022/04/07 11:58:58;;;;;;;3.12;1.55;;;;;;;;;;4229324;33;20483;-60
2022/04/07 12:01:24;;;;;;;5.22;1.48;;;;;;;;;;4216347;33;20208;-59
2022/04/07 12:03:52;;;;;;;3.42;1.50;;;;;;;;;;4232699;33;20125;-61
2022/04/07 12:06:28;;;;;;;2.92;1.35;;;;;;;;;;4233776;33;20139;-61
2022/04/07 12:08:55;;;;;;;5.87;1.65;;;;;;;;;;4220819;33;20562;-61
2022/04/07 12:11:24;;;;;;;2.35;1.27;;;;;;;;;;4233735;33;20161;-60
2022/04/07 12:13:52;;;;;;;5.53;1.40;;;;;;;;;;4233946;33;20204;-61
2022/04/07 12:16:19;;;;;;;5.35;1.40;;;;;;;;;;4220512;33;20520;-61
2022/04/07 12:18:58;;;;;;;2.22;1.30;;;;;;;;;;4233860;33;20203;-61
2022/04/07 12:21:26;;;;;;;1.08;1.05;;;;;;;;;;4233825;33;20189;-60
2022/04/07 12:24:24;;;;;;;4.97;1.70;;;;;;;;;;4233777;33;20478;-60
2022/04/07 12:26:52;;;;;;;1.40;1.30;;;;;;;;;;4202260;33;20620;-61
2022/04/07 12:29:19;;;;;;;4.25;1.20;;;;;;;;;;4233823;33;20128;-61
2022/04/07 12:31:45;;;;;;;4.30;1.50;;;;;;;;;;4233408;33;20105;-60
2022/04/07 12:34:13;;;;;;;4.25;1.50;;;;;;;;;;4220388;33;20537;-61
2022/04/07 12:36:42;;;;;;;4.90;1.62;;;;;;;;;;4233808;33;20123;-59
2022/04/07 12:39:09;;;;;;;6.62;1.58;;;;;;;;;;4233459;33;20529;-60
2022/04/07 12:41:47;;;;;;;2.87;1.33;;;;;;;;;;4233709;33;20109;-59
2022/04/07 12:44:22;;;;;;;1.60;1.40;;;;;;;;;;4233366;33;20124;-60
2022/04/07 12:46:56;;;;;;;6.90;1.67;;;;;;;;;;4233371;33;20528;-60
2022/04/07 12:49:28;;;;;;;2.33;1.23;;;;;;;;;;4233354;33;20769;-59
2022/04/07 12:52:11;;;;;;;1.77;1.33;;;;;;;;;;4220268;33;20187;-61
2022/04/07 12:54:38;;;;;;;8.07;1.65;;;;;;;;;;4233385;33;20125;-60
2022/04/07 12:57:16;;;;;;;7.30;1.90;;;;;;;;;;4233291;33;20129;-61
2022/04/07 12:59:58;;;;;;;10.30;2.08;;;;;;;;;;4219726;33;20517;-59
2022/04/07 13:02:25;;;;;;;1.58;1.48;;;;;;;;;;4230057;33;20136;-60
2022/04/07 13:04:54;;;;;;;2.25;1.50;;;;;;;;;;4229181;33;20140;-60
2022/04/07 13:07:21;;;;;;;1.08;1.08;;;;;;;;;;4215758;33;20171;-59
2022/04/07 13:09:49;;;;;;;10.52;1.77;;;;;;;;;;4229176;33;20113;-60
2022/04/07 13:12:16;;;;;;;4.05;2.25;;;;;;;;;;4228798;33;20496;-60
2022/04/07 13:14:42;;;;;;;9.80;2.37;;;;;;;;;;4230015;33;20530;-60
2022/04/07 13:17:12;;;;;;;4.00;1.73;;;;;;;;;;4233341;33;20120;-60
2022/04/07 13:19:38;;;;;;;1.65;1.20;;;;;;;;;;4233181;33;20093;-60
2022/04/07 13:22:05;;;;;;;7.80;2.17;;;;;;;;;;4233314;33;20127;-60
2022/04/07 13:24:31;;;;;;;1.90;1.80;;;;;;;;;;4233238;33;20109;-60
2022/04/07 13:26:58;;;;;;;2.45;2.05;;;;;;;;;;4233216;33;20116;-60
2022/04/07 13:29:24;;;;;;;3.08;2.40;;;;;;;;;;4232986;33;20203;-59
2022/04/07 13:31:51;;;;;;;7.10;2.75;;;;;;;;;;4219826;33;20107;-59
2022/04/07 13:34:17;;;;;;;4.43;2.33;;;;;;;;;;4232945;33;20193;-60
2022/04/07 13:36:44;;;;;;;1.02;1.00;;;;;;;;;;4231362;33;20120;-60
2022/04/07 13:39:11;;;;;;;1.08;1.08;;;;;;;;;;4233140;33;20107;-61
2022/04/07 13:41:38;;;;;;;4.32;2.47;;;;;;;;;;4232840;33;20163;-61
2022/04/07 13:44:04;;;;;;;5.62;2.08;;;;;;;;;;4233101;33;20538;-61
2022/04/07 13:46:30;;;;;;;7.75;1.80;;;;;;;;;;4233251;33;20201;-62
2022/04/07 13:48:56;;;;;;;1.05;1.05;;;;;;;;;;4233223;33;20124;-61
2022/04/07 13:51:22;;;;;;;1.42;1.30;;;;;;;;;;4233339;33;20100;-61
2022/04/07 13:53:48;;;;;;;1.00;1.00;;;;;;;;;;4233907;33;20428;-60
2022/04/07 13:56:14;;;;;;;1.70;1.60;;;;;;;;;;4234910;33;20119;-61
2022/04/07 13:58:40;;;;;;;4.30;1.98;;;;;;;;;;4233662;33;20104;-60
2022/04/07 14:01:09;;;;;;;6.68;2.22;;;;;;;;;;4231951;33;20111;-61
2022/04/07 14:03:35;;;;;;;3.75;1.70;;;;;;;;;;4232681;33;20098;-60
2022/04/07 14:06:02;;;;;;;9.55;1.90;;;;;;;;;;4233023;33;20102;-60
2022/04/07 14:08:29;;;;;;;7.43;3.45;;;;;;;;;;4232778;33;20219;-60
2022/04/07 14:10:55;;;;;;;7.93;2.37;;;;;;;;;;4219660;33;20437;-59
2022/04/07 14:13:23;;;;;;;5.78;2.40;;;;;;;;;;4232563;33;20116;-60
2022/04/07 14:15:50;;;;;;;1.75;1.52;;;;;;;;;;4219652;33;20556;-59
2022/04/07 14:18:16;;;;;;;3.97;1.70;;;;;;;;;;4230765;33;20112;-61
2022/04/07 14:20:43;;;;;;;4.47;1.95;;;;;;;;;;4232422;33;20082;-60
2022/04/07 14:23:12;;;;;;;7.90;2.95;;;;;;;;;;4232305;33;20172;-60
2022/04/07 14:25:39;;;;;;;2.22;1.90;;;;;;;;;;4232485;33;20204;-60
2022/04/07 14:28:06;;;;;;;10.13;2.40;;;;;;;;;;4232205;33;20128;-60
2022/04/07 14:30:32;;;;;;;7.87;2.90;;;;;;;;;;4231862;33;20254;-59
2022/04/07 14:32:58;;;;;;;3.78;2.40;;;;;;;;;;4219660;33;20113;-59
2022/04/07 14:35:24;;;;;;;5.30;2.50;;;;;;;;;;4232462;33;20188;-59
2022/04/07 14:37:52;;;;;;;11.18;3.10;;;;;;;;;;4232222;33;20116;-59
2022/04/07 14:40:19;;;;;;;11.23;4.00;;;;;;;;;;4219527;33;20101;-60
2022/04/07 14:42:45;;;;;;;11.02;3.62;;;;;;;;;;4232111;33;20188;-60
2022/04/07 14:45:11;;;;;;;17.67;5.80;;;;;;;;;;4232551;33;20196;-59
2022/04/07 14:47:37;;;;;;;13.80;4.20;;;;;;;;;;4232282;33;20184;-60
2022/04/07 14:50:05;;;;;;;10.27;5.18;;;;;;;;;;4232216;33;20606;-61
2022/04/07 14:52:31;;;;;;;15.43;5.43;;;;;;;;;;4227001;33;20129;-61
2022/04/07 14:54:58;;;;;;;16.58;5.40;;;;;;;;;;4227357;33;20621;-60
2022/04/07 14:57:24;;;;;;;10.30;5.18;;;;;;;;;;4231778;33;20111;-60
2022/04/07 14:59:50;;;;;;;11.93;5.07;;;;;;;;;;4232299;33;20200;-61
2022/04/07 15:02:16;;;;;;;20.42;6.93;;;;;;;;;;4231512;33;20204;-60
2022/04/07 15:04:42;;;;;;;13.05;6.75;;;;;;;;;;4232397;33;20215;-61
2022/04/07 15:07:08;;;;;;;11.27;4.37;;;;;;;;;;4218769;33;20112;-61
2022/04/07 15:09:35;;;;;;;10.88;2.92;;;;;;;;;;4232220;33;20120;-62